sensor_id;sensor_type;location;lat;lon;timestamp;P1;durP1;ratioP1;P2;durP2;ratioP2
2892;SDS011;1456;51.840;12.184;2022-09-27T00:00:15;1.40;;;1.40;;
2892;SDS011;1456;51.840;12.184;2022-09-27T00:02:43;1.00;;;1.00;;
2892;SDS011;1456;51.840;12.184;2022-09-27T00:05:10;1.20;;;1.20;;
2892;SDS011;1456;51.840;12.184;2022-09-27T00:07:37;1.23;;;1.23;;
2892;SDS011;1456;51.840;12.184;2022-09-27T00:10:02;1.20;;;1.20;;
2892;SDS011;1456;51.840;12.184;2022-09-27T00:12:28;1.40;;;1.40;;
2892;SDS011;1456;51.840;12.184;2022-09-27T00:14:54;1.17;;;1.17;;
2892;SDS011;1456;51.840;12.184;2022-09-27T00:17:20;1.57;;;1.57;;
2892;SDS011;1456;51.840;12.184;2022-09-27T00:22:16;1.50;;;1.50;;
2892;SDS011;1456;51.840;12.184;2022-09-27T00:27:10;1.00;;;1.00;;
2892;SDS011;1456;51.840;12.184;2022-09-27T00:29:37;1.10;;;1.10;;
2892;SDS011;1456;51.840;12.184;2022-09-27T00:32:09;1.10;;;1.10;;
2892;SDS011;1456;51.840;12.184;2022-09-27T00:34:42;0.80;;;0.80;;
2892;SDS011;1456;51.840;12.184;2022-09-27T00:39:42;0.70;;;0.70;;
2892;SDS011;1456;51.840;12.184;2022-09-27T00:42:11;0.60;;;0.60;;
2892;SDS011;1456;51.840;12.184;2022-09-27T00:49:36;0.77;;;0.77;;
2892;SDS011;1456;51.840;12.184;2022-09-27T00:52:08;0.40;;;0.40;;
2892;SDS011;1456;51.840;12.184;2022-09-27T00:54:41;0.40;;;0.40;;
2892;SDS011;1456;51.840;12.184;2022-09-27T00:57:11;0.50;;;0.50;;
2892;SDS011;1456;51.840;12.184;2022-09-27T00:59:42;0.33;;;0.33;;
2892;SDS011;1456;51.840;12.184;2022-09-27T01:04:55;0.30;;;0.30;;
2892;SDS011;1456;51.840;12.184;2022-09-27T01:07:21;0.30;;;0.30;;
2892;SDS011;1456;51.840;12.184;2022-09-27T01:09:48;0.30;;;0.30;;
2892;SDS011;1456;51.840;12.184;2022-09-27T01:26:29;0.60;;;0.60;;
2892;SDS011;1456;51.840;12.184;2022-09-27T01:32:21;0.40;;;0.40;;
2892;SDS011;1456;51.840;12.184;2022-09-27T01:40:23;0.40;;;0.40;;
2892;SDS011;1456;51.840;12.184;2022-09-27T01:43:12;0.40;;;0.30;;
2892;SDS011;1456;51.840;12.184;2022-09-27T01:45:57;0.43;;;0.43;;
2892;SDS011;1456;51.840;12.184;2022-09-27T01:48:31;0.30;;;0.30;;
2892;SDS011;1456;51.840;12.184;2022-09-27T01:53:53;0.40;;;0.40;;
2892;SDS011;1456;51.840;12.184;2022-09-27T01:56:28;0.30;;;0.30;;
2892;SDS011;1456;51.840;12.184;2022-09-27T02:01:59;0.30;;;0.30;;
2892;SDS011;1456;51.840;12.184;2022-09-27T02:04:30;0.40;;;0.40;;
2892;SDS011;1456;51.840;12.184;2022-09-27T02:06:59;0.30;;;0.30;;
2892;SDS011;1456;51.840;12.184;2022-09-27T02:09:35;0.40;;;0.30;;
2892;SDS011;1456;51.840;12.184;2022-09-27T02:12:07;0.80;;;0.80;;
2892;SDS011;1456;51.840;12.184;2022-09-27T02:14:41;0.30;;;0.30;;
2892;SDS011;1456;51.840;12.184;2022-09-27T02:17:15;0.40;;;0.40;;
2892;SDS011;1456;51.840;12.184;2022-09-27T02:25:27;0.40;;;0.33;;
2892;SDS011;1456;51.840;12.184;2022-09-27T02:33:39;0.40;;;0.40;;
2892;SDS011;1456;51.840;12.184;2022-09-27T02:36:13;0.30;;;0.20;;
2892;SDS011;1456;51.840;12.184;2022-09-27T02:38:39;0.57;;;0.50;;
2892;SDS011;1456;51.840;12.184;2022-09-27T02:41:12;0.50;;;0.50;;
2892;SDS011;1456;51.840;12.184;2022-09-27T02:43:47;0.30;;;0.30;;
2892;SDS011;1456;51.840;12.184;2022-09-27T02:58:27;0.77;;;0.40;;
2892;SDS011;1456;51.840;12.184;2022-09-27T03:00:38;0.40;;;0.40;;
2892;SDS011;1456;51.840;12.184;2022-09-27T03:03:33;0.40;;;0.40;;
2892;SDS011;1456;51.840;12.184;2022-09-27T03:06:09;0.30;;;0.30;;
2892;SDS011;1456;51.840;12.184;2022-09-27T03:08:38;0.30;;;0.30;;
2892;SDS011;1456;51.840;12.184;2022-09-27T03:11:17;0.40;;;0.40;;
2892;SDS011;1456;51.840;12.184;2022-09-27T03:13:43;0.40;;;0.40;;
2892;SDS011;1456;51.840;12.184;2022-09-27T03:16:08;0.43;;;0.43;;
2892;SDS011;1456;51.840;12.184;2022-09-27T03:18:35;0.70;;;0.50;;
2892;SDS011;1456;51.840;12.184;2022-09-27T03:21:01;0.40;;;0.40;;
2892;SDS011;1456;51.840;12.184;2022-09-27T03:23:26;0.30;;;0.30;;
2892;SDS011;1456;51.840;12.184;2022-09-27T03:25:54;0.30;;;0.30;;
2892;SDS011;1456;51.840;12.184;2022-09-27T03:28:29;0.40;;;0.30;;
2892;SDS011;1456;51.840;12.184;2022-09-27T03:30:56;0.40;;;0.40;;
2892;SDS011;1456;51.840;12.184;2022-09-27T03:33:24;0.30;;;0.20;;
2892;SDS011;1456;51.840;12.184;2022-09-27T03:38:18;0.30;;;0.30;;
2892;SDS011;1456;51.840;12.184;2022-09-27T03:40:47;1.07;;;0.53;;
2892;SDS011;1456;51.840;12.184;2022-09-27T03:43:19;0.30;;;0.30;;
2892;SDS011;1456;51.840;12.184;2022-09-27T03:45:48;0.40;;;0.40;;
2892;SDS011;1456;51.840;12.184;2022-09-27T03:48:14;0.40;;;0.40;;
2892;SDS011;1456;51.840;12.184;2022-09-27T03:50:40;0.67;;;0.67;;
2892;SDS011;1456;51.840;12.184;2022-09-27T03:53:06;0.67;;;0.50;;
2892;SDS011;1456;51.840;12.184;2022-09-27T03:55:32;0.70;;;0.70;;
2892;SDS011;1456;51.840;12.184;2022-09-27T04:00:32;0.30;;;0.20;;
2892;SDS011;1456;51.840;12.184;2022-09-27T04:02:57;0.30;;;0.20;;
2892;SDS011;1456;51.840;12.184;2022-09-27T04:05:27;0.90;;;0.30;;
2892;SDS011;1456;51.840;12.184;2022-09-27T04:07:58;0.30;;;0.30;;
2892;SDS011;1456;51.840;12.184;2022-09-27T04:12:55;0.30;;;0.30;;
2892;SDS011;1456;51.840;12.184;2022-09-27T04:15:20;0.30;;;0.30;;
2892;SDS011;1456;51.840;12.184;2022-09-27T04:17:47;0.30;;;0.30;;
2892;SDS011;1456;51.840;12.184;2022-09-27T04:20:20;0.40;;;0.40;;
2892;SDS011;1456;51.840;12.184;2022-09-27T04:22:52;0.30;;;0.20;;
2892;SDS011;1456;51.840;12.184;2022-09-27T04:25:18;0.30;;;0.30;;
2892;SDS011;1456;51.840;12.184;2022-09-27T04:27:44;0.30;;;0.20;;
2892;SDS011;1456;51.840;12.184;2022-09-27T04:30:10;1.53;;;0.43;;
2892;SDS011;1456;51.840;12.184;2022-09-27T04:32:46;0.30;;;0.20;;
2892;SDS011;1456;51.840;12.184;2022-09-27T04:35:13;0.40;;;0.30;;
2892;SDS011;1456;51.840;12.184;2022-09-27T04:37:57;0.30;;;0.20;;
2892;SDS011;1456;51.840;12.184;2022-09-27T04:40:24;0.30;;;0.30;;
2892;SDS011;1456;51.840;12.184;2022-09-27T04:42:50;0.40;;;0.40;;
2892;SDS011;1456;51.840;12.184;2022-09-27T04:45:17;0.30;;;0.20;;
2892;SDS011;1456;51.840;12.184;2022-09-27T04:47:49;0.30;;;0.30;;
2892;SDS011;1456;51.840;12.184;2022-09-27T04:50:16;0.30;;;0.20;;
2892;SDS011;1456;51.840;12.184;2022-09-27T04:52:50;0.80;;;0.60;;
2892;SDS011;1456;51.840;12.184;2022-09-27T04:55:18;0.30;;;0.30;;
2892;SDS011;1456;51.840;12.184;2022-09-27T04:57:47;0.30;;;0.30;;
2892;SDS011;1456;51.840;12.184;2022-09-27T05:00:14;0.40;;;0.40;;
2892;SDS011;1456;51.840;12.184;2022-09-27T05:02:42;0.30;;;0.20;;
2892;SDS011;1456;51.840;12.184;2022-09-27T05:05:12;0.30;;;0.20;;
2892;SDS011;1456;51.840;12.184;2022-09-27T05:07:39;0.30;;;0.20;;
2892;SDS011;1456;51.840;12.184;2022-09-27T05:10:05;0.30;;;0.30;;
2892;SDS011;1456;51.840;12.184;2022-09-27T05:12:35;0.30;;;0.20;;
2892;SDS011;1456;51.840;12.184;2022-09-27T05:15:01;0.50;;;0.50;;
2892;SDS011;1456;51.840;12.184;2022-09-27T05:17:30;0.30;;;0.20;;
2892;SDS011;1456;51.840;12.184;2022-09-27T05:20:03;0.30;;;0.20;;
2892;SDS011;1456;51.840;12.184;2022-09-27T05:22:29;0.30;;;0.20;;
2892;SDS011;1456;51.840;12.184;2022-09-27T05:24:56;0.30;;;0.30;;
2892;SDS011;1456;51.840;12.184;2022-09-27T05:27:33;0.30;;;0.23;;
2892;SDS011;1456;51.840;12.184;2022-09-27T05:29:59;0.60;;;0.47;;
2892;SDS011;1456;51.840;12.184;2022-09-27T05:32:26;0.30;;;0.30;;
2892;SDS011;1456;51.840;12.184;2022-09-27T05:34:53;0.30;;;0.20;;
2892;SDS011;1456;51.840;12.184;2022-09-27T05:37:20;0.30;;;0.20;;
2892;SDS011;1456;51.840;12.184;2022-09-27T05:39:52;0.30;;;0.20;;
2892;SDS011;1456;51.840;12.184;2022-09-27T05:42:18;0.60;;;0.20;;
2892;SDS011;1456;51.840;12.184;2022-09-27T05:44:43;0.30;;;0.20;;
2892;SDS011;1456;51.840;12.184;2022-09-27T05:47:13;0.40;;;0.40;;
2892;SDS011;1456;51.840;12.184;2022-09-27T05:52:09;0.30;;;0.20;;
2892;SDS011;1456;51.840;12.184;2022-09-27T05:54:35;2.43;;;0.87;;
2892;SDS011;1456;51.840;12.184;2022-09-27T05:57:01;0.30;;;0.20;;
2892;SDS011;1456;51.840;12.184;2022-09-27T05:59:27;0.30;;;0.30;;
2892;SDS011;1456;51.840;12.184;2022-09-27T06:01:59;0.30;;;0.30;;
2892;SDS011;1456;51.840;12.184;2022-09-27T06:04:26;0.30;;;0.20;;
2892;SDS011;1456;51.840;12.184;2022-09-27T06:06:53;0.73;;;0.30;;
2892;SDS011;1456;51.840;12.184;2022-09-27T06:09:23;0.50;;;0.50;;
2892;SDS011;1456;51.840;12.184;2022-09-27T06:11:50;0.37;;;0.30;;
2892;SDS011;1456;51.840;12.184;2022-09-27T06:14:16;0.37;;;0.27;;
2892;SDS011;1456;51.840;12.184;2022-09-27T06:16:42;0.73;;;0.30;;
2892;SDS011;1456;51.840;12.184;2022-09-27T06:19:19;0.30;;;0.20;;
2892;SDS011;1456;51.840;12.184;2022-09-27T06:21:48;0.30;;;0.20;;
2892;SDS011;1456;51.840;12.184;2022-09-27T06:24:15;0.30;;;0.20;;
2892;SDS011;1456;51.840;12.184;2022-09-27T06:29:28;0.50;;;0.27;;
2892;SDS011;1456;51.840;12.184;2022-09-27T06:31:58;0.40;;;0.37;;
2892;SDS011;1456;51.840;12.184;2022-09-27T06:34:24;0.30;;;0.20;;
2892;SDS011;1456;51.840;12.184;2022-09-27T06:39:21;1.53;;;0.70;;
2892;SDS011;1456;51.840;12.184;2022-09-27T06:41:46;1.07;;;0.87;;
2892;SDS011;1456;51.840;12.184;2022-09-27T06:44:14;0.90;;;0.80;;
2892;SDS011;1456;51.840;12.184;2022-09-27T06:46:40;0.30;;;0.20;;
2892;SDS011;1456;51.840;12.184;2022-09-27T06:49:06;0.30;;;0.30;;
2892;SDS011;1456;51.840;12.184;2022-09-27T06:51:32;0.47;;;0.40;;
2892;SDS011;1456;51.840;12.184;2022-09-27T06:54:00;1.13;;;0.60;;
2892;SDS011;1456;51.840;12.184;2022-09-27T06:56:26;0.37;;;0.30;;
2892;SDS011;1456;51.840;12.184;2022-09-27T06:58:57;0.50;;;0.50;;
2892;SDS011;1456;51.840;12.184;2022-09-27T07:01:43;0.30;;;0.20;;
2892;SDS011;1456;51.840;12.184;2022-09-27T07:04:11;0.30;;;0.20;;
2892;SDS011;1456;51.840;12.184;2022-09-27T07:06:39;0.40;;;0.23;;
2892;SDS011;1456;51.840;12.184;2022-09-27T07:09:07;0.30;;;0.20;;
2892;SDS011;1456;51.840;12.184;2022-09-27T07:11:37;0.30;;;0.20;;
2892;SDS011;1456;51.840;12.184;2022-09-27T07:16:34;0.30;;;0.20;;
2892;SDS011;1456;51.840;12.184;2022-09-27T07:21:43;0.30;;;0.27;;
2892;SDS011;1456;51.840;12.184;2022-09-27T07:24:09;0.30;;;0.20;;
2892;SDS011;1456;51.840;12.184;2022-09-27T07:26:37;0.30;;;0.20;;
2892;SDS011;1456;51.840;12.184;2022-09-27T07:29:08;0.30;;;0.20;;
2892;SDS011;1456;51.840;12.184;2022-09-27T07:31:35;0.30;;;0.20;;
2892;SDS011;1456;51.840;12.184;2022-09-27T07:36:35;0.30;;;0.20;;
2892;SDS011;1456;51.840;12.184;2022-09-27T07:39:00;0.30;;;0.20;;
2892;SDS011;1456;51.840;12.184;2022-09-27T07:41:26;3.03;;;0.20;;
2892;SDS011;1456;51.840;12.184;2022-09-27T07:43:52;0.30;;;0.30;;
2892;SDS011;1456;51.840;12.184;2022-09-27T07:46:18;0.30;;;0.20;;
2892;SDS011;1456;51.840;12.184;2022-09-27T07:48:45;0.30;;;0.30;;
2892;SDS011;1456;51.840;12.184;2022-09-27T07:53:42;0.60;;;0.20;;
2892;SDS011;1456;51.840;12.184;2022-09-27T07:56:11;0.40;;;0.30;;
2892;SDS011;1456;51.840;12.184;2022-09-27T07:58:37;2.10;;;0.60;;
2892;SDS011;1456;51.840;12.184;2022-09-27T08:01:07;0.30;;;0.30;;
2892;SDS011;1456;51.840;12.184;2022-09-27T08:03:33;0.30;;;0.20;;
2892;SDS011;1456;51.840;12.184;2022-09-27T08:06:02;0.30;;;0.30;;
2892;SDS011;1456;51.840;12.184;2022-09-27T08:08:28;0.30;;;0.20;;
2892;SDS011;1456;51.840;12.184;2022-09-27T08:13:28;0.40;;;0.40;;
2892;SDS011;1456;51.840;12.184;2022-09-27T08:16:01;0.30;;;0.20;;
2892;SDS011;1456;51.840;12.184;2022-09-27T08:18:36;0.33;;;0.27;;
2892;SDS011;1456;51.840;12.184;2022-09-27T08:21:03;0.83;;;0.40;;
2892;SDS011;1456;51.840;12.184;2022-09-27T08:23:29;0.40;;;0.37;;
2892;SDS011;1456;51.840;12.184;2022-09-27T08:26:02;0.30;;;0.30;;
2892;SDS011;1456;51.840;12.184;2022-09-27T08:28:38;0.40;;;0.40;;
2892;SDS011;1456;51.840;12.184;2022-09-27T08:31:17;0.67;;;0.40;;
2892;SDS011;1456;51.840;12.184;2022-09-27T08:33:48;0.40;;;0.40;;
2892;SDS011;1456;51.840;12.184;2022-09-27T08:36:16;0.40;;;0.40;;
2892;SDS011;1456;51.840;12.184;2022-09-27T08:38:49;0.30;;;0.30;;
2892;SDS011;1456;51.840;12.184;2022-09-27T08:44:04;0.30;;;0.30;;
2892;SDS011;1456;51.840;12.184;2022-09-27T08:46:45;0.30;;;0.30;;
2892;SDS011;1456;51.840;12.184;2022-09-27T08:49:26;1.27;;;0.80;;
2892;SDS011;1456;51.840;12.184;2022-09-27T08:51:53;0.97;;;0.90;;
2892;SDS011;1456;51.840;12.184;2022-09-27T08:54:23;0.30;;;0.30;;
2892;SDS011;1456;51.840;12.184;2022-09-27T08:56:56;0.30;;;0.30;;
2892;SDS011;1456;51.840;12.184;2022-09-27T09:02:29;0.40;;;0.40;;
2892;SDS011;1456;51.840;12.184;2022-09-27T09:05:29;0.30;;;0.30;;
2892;SDS011;1456;51.840;12.184;2022-09-27T09:24:41;0.30;;;0.27;;
2892;SDS011;1456;51.840;12.184;2022-09-27T09:27:24;0.37;;;0.37;;
2892;SDS011;1456;51.840;12.184;2022-09-27T09:30:21;0.30;;;0.30;;
2892;SDS011;1456;51.840;12.184;2022-09-27T09:35:40;0.50;;;0.50;;
2892;SDS011;1456;51.840;12.184;2022-09-27T09:38:48;0.30;;;0.30;;
2892;SDS011;1456;51.840;12.184;2022-09-27T09:44:04;0.50;;;0.50;;
2892;SDS011;1456;51.840;12.184;2022-09-27T09:52:23;0.30;;;0.20;;
2892;SDS011;1456;51.840;12.184;2022-09-27T09:54:59;0.30;;;0.30;;
2892;SDS011;1456;51.840;12.184;2022-09-27T09:57:42;0.70;;;0.57;;
2892;SDS011;1456;51.840;12.184;2022-09-27T10:00:34;0.60;;;0.40;;
2892;SDS011;1456;51.840;12.184;2022-09-27T10:02:59;0.40;;;0.40;;
2892;SDS011;1456;51.840;12.184;2022-09-27T10:05:30;0.50;;;0.50;;
2892;SDS011;1456;51.840;12.184;2022-09-27T10:07:57;0.40;;;0.33;;
2892;SDS011;1456;51.840;12.184;2022-09-27T10:15:29;0.30;;;0.30;;
2892;SDS011;1456;51.840;12.184;2022-09-27T10:18:00;0.37;;;0.33;;
2892;SDS011;1456;51.840;12.184;2022-09-27T10:20:28;0.30;;;0.20;;
2892;SDS011;1456;51.840;12.184;2022-09-27T10:23:14;0.30;;;0.27;;
2892;SDS011;1456;51.840;12.184;2022-09-27T10:25:46;0.40;;;0.30;;
2892;SDS011;1456;51.840;12.184;2022-09-27T10:31:06;0.30;;;0.30;;
2892;SDS011;1456;51.840;12.184;2022-09-27T10:33:55;0.40;;;0.30;;
2892;SDS011;1456;51.840;12.184;2022-09-27T10:36:30;0.40;;;0.30;;
2892;SDS011;1456;51.840;12.184;2022-09-27T10:39:01;0.30;;;0.20;;
2892;SDS011;1456;51.840;12.184;2022-09-27T10:41:33;0.30;;;0.30;;
2892;SDS011;1456;51.840;12.184;2022-09-27T10:46:51;0.40;;;0.30;;
2892;SDS011;1456;51.840;12.184;2022-09-27T10:52:01;0.37;;;0.23;;
2892;SDS011;1456;51.840;12.184;2022-09-27T10:54:32;0.30;;;0.30;;
2892;SDS011;1456;51.840;12.184;2022-09-27T10:59:39;0.30;;;0.20;;
2892;SDS011;1456;51.840;12.184;2022-09-27T11:02:30;0.30;;;0.20;;
2892;SDS011;1456;51.840;12.184;2022-09-27T11:05:41;0.30;;;0.20;;
2892;SDS011;1456;51.840;12.184;2022-09-27T11:07:51;0.30;;;0.20;;
2892;SDS011;1456;51.840;12.184;2022-09-27T11:10:26;1.07;;;0.40;;
2892;SDS011;1456;51.840;12.184;2022-09-27T11:13:13;1.00;;;0.50;;
2892;SDS011;1456;51.840;12.184;2022-09-27T11:15:49;0.40;;;0.30;;
2892;SDS011;1456;51.840;12.184;2022-09-27T11:46:46;0.30;;;0.20;;
2892;SDS011;1456;51.840;12.184;2022-09-27T11:49:49;0.30;;;0.20;;
2892;SDS011;1456;51.840;12.184;2022-09-27T11:55:26;0.30;;;0.30;;
2892;SDS011;1456;51.840;12.184;2022-09-27T11:58:22;0.30;;;0.20;;
2892;SDS011;1456;51.840;12.184;2022-09-27T12:01:21;0.30;;;0.20;;
2892;SDS011;1456;51.840;12.184;2022-09-27T12:09:31;0.40;;;0.20;;
2892;SDS011;1456;51.840;12.184;2022-09-27T12:12:10;0.30;;;0.20;;
2892;SDS011;1456;51.840;12.184;2022-09-27T12:14:46;0.40;;;0.30;;
2892;SDS011;1456;51.840;12.184;2022-09-27T12:17:26;0.50;;;0.40;;
2892;SDS011;1456;51.840;12.184;2022-09-27T12:20:09;0.30;;;0.20;;
2892;SDS011;1456;51.840;12.184;2022-09-27T12:25:25;0.30;;;0.30;;
2892;SDS011;1456;51.840;12.184;2022-09-27T12:28:00;0.30;;;0.20;;
2892;SDS011;1456;51.840;12.184;2022-09-27T12:30:34;0.40;;;0.30;;
2892;SDS011;1456;51.840;12.184;2022-09-27T12:33:25;2.40;;;0.40;;
2892;SDS011;1456;51.840;12.184;2022-09-27T12:35:59;0.30;;;0.30;;
2892;SDS011;1456;51.840;12.184;2022-09-27T12:38:38;0.30;;;0.30;;
2892;SDS011;1456;51.840;12.184;2022-09-27T12:41:08;0.40;;;0.37;;
2892;SDS011;1456;51.840;12.184;2022-09-27T12:43:38;0.40;;;0.40;;
2892;SDS011;1456;51.840;12.184;2022-09-27T12:49:11;0.30;;;0.30;;
2892;SDS011;1456;51.840;12.184;2022-09-27T12:51:57;0.40;;;0.40;;
2892;SDS011;1456;51.840;12.184;2022-09-27T13:00:04;0.43;;;0.43;;
2892;SDS011;1456;51.840;12.184;2022-09-27T13:05:20;0.47;;;0.47;;
2892;SDS011;1456;51.840;12.184;2022-09-27T13:08:14;1.10;;;1.10;;
2892;SDS011;1456;51.840;12.184;2022-09-27T13:13:47;7.10;;;6.90;;
2892;SDS011;1456;51.840;12.184;2022-09-27T13:16:14;2.40;;;2.40;;
2892;SDS011;1456;51.840;12.184;2022-09-27T13:21:13;3.53;;;3.53;;
2892;SDS011;1456;51.840;12.184;2022-09-27T13:32:39;1.70;;;1.70;;
2892;SDS011;1456;51.840;12.184;2022-09-27T13:35:35;3.00;;;3.00;;
2892;SDS011;1456;51.840;12.184;2022-09-27T13:38:04;2.30;;;2.30;;
2892;SDS011;1456;51.840;12.184;2022-09-27T13:43:58;2.00;;;2.00;;
2892;SDS011;1456;51.840;12.184;2022-09-27T13:46:17;3.03;;;3.03;;
2892;SDS011;1456;51.840;12.184;2022-09-27T13:48:48;3.07;;;3.07;;
2892;SDS011;1456;51.840;12.184;2022-09-27T14:00:15;3.20;;;3.20;;
2892;SDS011;1456;51.840;12.184;2022-09-27T14:05:19;2.13;;;2.13;;
2892;SDS011;1456;51.840;12.184;2022-09-27T14:10:20;2.13;;;2.13;;
2892;SDS011;1456;51.840;12.184;2022-09-27T14:15:20;2.73;;;2.73;;
2892;SDS011;1456;51.840;12.184;2022-09-27T14:17:54;3.00;;;3.00;;
2892;SDS011;1456;51.840;12.184;2022-09-27T14:21:05;3.20;;;3.20;;
2892;SDS011;1456;51.840;12.184;2022-09-27T14:23:23;2.70;;;2.70;;
2892;SDS011;1456;51.840;12.184;2022-09-27T14:25:52;3.40;;;3.40;;
2892;SDS011;1456;51.840;12.184;2022-09-27T14:28:28;2.40;;;2.40;;
2892;SDS011;1456;51.840;12.184;2022-09-27T14:31:05;3.80;;;3.80;;
2892;SDS011;1456;51.840;12.184;2022-09-27T14:36:30;6.30;;;6.20;;
2892;SDS011;1456;51.840;12.184;2022-09-27T14:39:24;7.63;;;7.53;;
2892;SDS011;1456;51.840;12.184;2022-09-27T14:41:57;8.27;;;8.17;;
2892;SDS011;1456;51.840;12.184;2022-09-27T14:44:27;8.60;;;8.50;;
2892;SDS011;1456;51.840;12.184;2022-09-27T14:49:53;8.97;;;8.87;;
2892;SDS011;1456;51.840;12.184;2022-09-27T14:55:09;8.40;;;8.30;;
2892;SDS011;1456;51.840;12.184;2022-09-27T14:58:16;7.30;;;7.20;;
2892;SDS011;1456;51.840;12.184;2022-09-27T15:00:38;6.30;;;6.30;;
2892;SDS011;1456;51.840;12.184;2022-09-27T15:03:14;5.57;;;5.57;;
2892;SDS011;1456;51.840;12.184;2022-09-27T15:06:03;5.67;;;5.17;;
2892;SDS011;1456;51.840;12.184;2022-09-27T15:08:32;4.40;;;4.30;;
2892;SDS011;1456;51.840;12.184;2022-09-27T15:11:14;3.20;;;3.20;;
2892;SDS011;1456;51.840;12.184;2022-09-27T15:13:49;3.13;;;3.03;;
2892;SDS011;1456;51.840;12.184;2022-09-27T15:16:20;3.30;;;3.30;;
2892;SDS011;1456;51.840;12.184;2022-09-27T15:19:00;2.40;;;2.40;;
2892;SDS011;1456;51.840;12.184;2022-09-27T15:21:41;1.47;;;1.47;;
2892;SDS011;1456;51.840;12.184;2022-09-27T15:25:02;1.50;;;1.50;;
2892;SDS011;1456;51.840;12.184;2022-09-27T15:27:04;1.13;;;1.13;;
2892;SDS011;1456;51.840;12.184;2022-09-27T15:29:39;2.50;;;2.50;;
2892;SDS011;1456;51.840;12.184;2022-09-27T15:32:05;3.20;;;3.13;;
2892;SDS011;1456;51.840;12.184;2022-09-27T15:34:32;2.80;;;2.80;;
2892;SDS011;1456;51.840;12.184;2022-09-27T15:39:52;3.33;;;3.33;;
2892;SDS011;1456;51.840;12.184;2022-09-27T15:42:18;3.67;;;3.63;;
2892;SDS011;1456;51.840;12.184;2022-09-27T15:44:50;4.30;;;4.30;;
2892;SDS011;1456;51.840;12.184;2022-09-27T15:53:04;3.80;;;3.80;;
2892;SDS011;1456;51.840;12.184;2022-09-27T15:55:38;4.20;;;4.20;;
2892;SDS011;1456;51.840;12.184;2022-09-27T16:00:55;3.57;;;3.57;;
2892;SDS011;1456;51.840;12.184;2022-09-27T16:03:22;3.57;;;3.57;;
2892;SDS011;1456;51.840;12.184;2022-09-27T16:05:57;3.80;;;3.80;;
2892;SDS011;1456;51.840;12.184;2022-09-27T16:10:57;3.73;;;3.73;;
2892;SDS011;1456;51.840;12.184;2022-09-27T16:13:25;3.40;;;3.40;;
2892;SDS011;1456;51.840;12.184;2022-09-27T16:15:54;3.80;;;3.80;;
2892;SDS011;1456;51.840;12.184;2022-09-27T16:18:21;4.30;;;4.27;;
2892;SDS011;1456;51.840;12.184;2022-09-27T16:20:49;4.30;;;4.20;;
2892;SDS011;1456;51.840;12.184;2022-09-27T16:23:22;4.27;;;4.20;;
2892;SDS011;1456;51.840;12.184;2022-09-27T16:25:58;3.80;;;3.80;;
2892;SDS011;1456;51.840;12.184;2022-09-27T16:28:26;3.50;;;3.50;;
2892;SDS011;1456;51.840;12.184;2022-09-27T16:30:59;3.27;;;3.27;;
2892;SDS011;1456;51.840;12.184;2022-09-27T16:35:58;3.67;;;3.67;;
2892;SDS011;1456;51.840;12.184;2022-09-27T16:41:06;3.67;;;3.67;;
2892;SDS011;1456;51.840;12.184;2022-09-27T16:43:34;3.17;;;3.17;;
2892;SDS011;1456;51.840;12.184;2022-09-27T16:46:03;2.80;;;2.80;;
2892;SDS011;1456;51.840;12.184;2022-09-27T16:48:38;4.80;;;4.70;;
2892;SDS011;1456;51.840;12.184;2022-09-27T16:51:05;3.07;;;3.07;;
2892;SDS011;1456;51.840;12.184;2022-09-27T16:53:51;3.00;;;3.00;;
2892;SDS011;1456;51.840;12.184;2022-09-27T16:56:17;3.77;;;3.77;;
2892;SDS011;1456;51.840;12.184;2022-09-27T16:58:46;2.70;;;2.70;;
2892;SDS011;1456;51.840;12.184;2022-09-27T17:01:21;2.67;;;2.57;;
2892;SDS011;1456;51.840;12.184;2022-09-27T17:03:53;1.77;;;1.77;;
2892;SDS011;1456;51.840;12.184;2022-09-27T17:06:24;1.40;;;1.40;;
2892;SDS011;1456;51.840;12.184;2022-09-27T17:09:02;1.07;;;1.07;;
2892;SDS011;1456;51.840;12.184;2022-09-27T17:11:38;1.40;;;1.40;;
2892;SDS011;1456;51.840;12.184;2022-09-27T17:14:04;1.27;;;1.27;;
2892;SDS011;1456;51.840;12.184;2022-09-27T17:16:30;0.97;;;0.97;;
2892;SDS011;1456;51.840;12.184;2022-09-27T17:19:07;1.20;;;1.20;;
2892;SDS011;1456;51.840;12.184;2022-09-27T17:21:40;1.10;;;1.10;;
2892;SDS011;1456;51.840;12.184;2022-09-27T17:24:08;0.90;;;0.90;;
2892;SDS011;1456;51.840;12.184;2022-09-27T17:26:37;1.10;;;1.10;;
2892;SDS011;1456;51.840;12.184;2022-09-27T17:29:03;1.00;;;1.00;;
2892;SDS011;1456;51.840;12.184;2022-09-27T17:31:29;0.50;;;0.50;;
2892;SDS011;1456;51.840;12.184;2022-09-27T17:33:59;3.37;;;1.63;;
2892;SDS011;1456;51.840;12.184;2022-09-27T17:36:27;0.33;;;0.33;;
2892;SDS011;1456;51.840;12.184;2022-09-27T17:38:59;0.73;;;0.73;;
2892;SDS011;1456;51.840;12.184;2022-09-27T17:41:31;0.53;;;0.53;;
2892;SDS011;1456;51.840;12.184;2022-09-27T17:44:03;0.50;;;0.50;;
2892;SDS011;1456;51.840;12.184;2022-09-27T17:46:38;0.77;;;0.70;;
2892;SDS011;1456;51.840;12.184;2022-09-27T17:49:08;0.97;;;0.43;;
2892;SDS011;1456;51.840;12.184;2022-09-27T17:51:53;0.53;;;0.53;;
2892;SDS011;1456;51.840;12.184;2022-09-27T17:54:27;0.60;;;0.60;;
2892;SDS011;1456;51.840;12.184;2022-09-27T17:56:57;0.83;;;0.80;;
2892;SDS011;1456;51.840;12.184;2022-09-27T17:59:23;1.20;;;1.20;;
2892;SDS011;1456;51.840;12.184;2022-09-27T18:01:48;1.07;;;0.87;;
2892;SDS011;1456;51.840;12.184;2022-09-27T18:04:16;0.60;;;0.60;;
2892;SDS011;1456;51.840;12.184;2022-09-27T18:06:45;0.73;;;0.70;;
2892;SDS011;1456;51.840;12.184;2022-09-27T18:09:12;0.80;;;0.80;;
2892;SDS011;1456;51.840;12.184;2022-09-27T18:11:44;1.27;;;1.27;;
2892;SDS011;1456;51.840;12.184;2022-09-27T18:14:10;1.47;;;1.47;;
2892;SDS011;1456;51.840;12.184;2022-09-27T18:16:37;0.80;;;0.80;;
2892;SDS011;1456;51.840;12.184;2022-09-27T18:19:06;0.30;;;0.30;;
2892;SDS011;1456;51.840;12.184;2022-09-27T18:21:34;0.37;;;0.37;;
2892;SDS011;1456;51.840;12.184;2022-09-27T18:24:01;0.60;;;0.60;;
2892;SDS011;1456;51.840;12.184;2022-09-27T18:26:33;0.60;;;0.60;;
2892;SDS011;1456;51.840;12.184;2022-09-27T18:29:08;0.70;;;0.70;;
2892;SDS011;1456;51.840;12.184;2022-09-27T18:31:36;0.80;;;0.80;;
2892;SDS011;1456;51.840;12.184;2022-09-27T18:34:03;0.70;;;0.70;;
2892;SDS011;1456;51.840;12.184;2022-09-27T18:36:30;0.80;;;0.80;;
2892;SDS011;1456;51.840;12.184;2022-09-27T18:38:59;0.50;;;0.50;;
2892;SDS011;1456;51.840;12.184;2022-09-27T18:41:30;0.70;;;0.70;;
2892;SDS011;1456;51.840;12.184;2022-09-27T18:43:58;0.47;;;0.47;;
2892;SDS011;1456;51.840;12.184;2022-09-27T18:46:27;0.40;;;0.40;;
2892;SDS011;1456;51.840;12.184;2022-09-27T18:48:57;0.87;;;0.87;;
2892;SDS011;1456;51.840;12.184;2022-09-27T18:51:28;0.80;;;0.80;;
2892;SDS011;1456;51.840;12.184;2022-09-27T18:54:00;0.57;;;0.57;;
2892;SDS011;1456;51.840;12.184;2022-09-27T18:56:29;0.70;;;0.70;;
2892;SDS011;1456;51.840;12.184;2022-09-27T18:58:57;0.43;;;0.43;;
2892;SDS011;1456;51.840;12.184;2022-09-27T19:01:26;0.93;;;0.93;;
2892;SDS011;1456;51.840;12.184;2022-09-27T19:03:52;1.03;;;0.70;;
2892;SDS011;1456;51.840;12.184;2022-09-27T19:06:19;0.40;;;0.40;;
2892;SDS011;1456;51.840;12.184;2022-09-27T19:08:51;0.80;;;0.80;;
2892;SDS011;1456;51.840;12.184;2022-09-27T19:13:58;1.27;;;0.70;;
2892;SDS011;1456;51.840;12.184;2022-09-27T19:18:53;0.40;;;0.40;;
2892;SDS011;1456;51.840;12.184;2022-09-27T19:21:24;3.90;;;0.50;;
2892;SDS011;1456;51.840;12.184;2022-09-27T19:23:52;0.60;;;0.60;;
2892;SDS011;1456;51.840;12.184;2022-09-27T19:26:19;0.40;;;0.37;;
2892;SDS011;1456;51.840;12.184;2022-09-27T19:28:49;0.40;;;0.40;;
2892;SDS011;1456;51.840;12.184;2022-09-27T19:31:21;1.93;;;0.57;;
2892;SDS011;1456;51.840;12.184;2022-09-27T19:33:50;0.80;;;0.80;;
2892;SDS011;1456;51.840;12.184;2022-09-27T19:36:19;0.70;;;0.70;;
2892;SDS011;1456;51.840;12.184;2022-09-27T19:38:46;0.30;;;0.30;;
2892;SDS011;1456;51.840;12.184;2022-09-27T19:41:16;0.30;;;0.30;;
2892;SDS011;1456;51.840;12.184;2022-09-27T19:43:43;0.70;;;0.63;;
2892;SDS011;1456;51.840;12.184;2022-09-27T19:46:22;0.30;;;0.30;;
2892;SDS011;1456;51.840;12.184;2022-09-27T19:51:28;1.37;;;0.57;;